Time;durP1;ratioP1;P1;durP2;ratioP2;P2;SDS_P1;SDS_P2;PMS_P1;PMS_P2;Temp;Humidity;BMP_temperature;BMP_pressure;BME280_temperature;BME280_humidity;BME280_pressure;Samples;Min_cycle;Max_cycle;Signal;HPM_P1;HPM_P2
2022/08/04 00:01:13;;;;;;;2.38;1.83;;;23.40;48.80;;;;;;5039717;28;20037;-70
2022/08/04 00:03:51;;;;;;;1.92;1.83;;;23.40;49.00;;;;;;5019245;28;20037;-71
2022/08/04 00:06:33;;;;;;;2.63;1.65;;;23.30;49.00;;;;;;5026064;28;20071;-70
2022/08/04 00:09:01;;;;;;;1.95;1.55;;;23.30;49.40;;;;;;5013615;28;20864;-71
2022/08/04 00:11:29;;;;;;;1.85;1.67;;;23.20;49.20;;;;;;5031323;28;20086;-73
2022/08/04 00:14:12;;;;;;;2.35;1.60;;;23.20;49.30;;;;;;4979924;28;20041;-71
2022/08/04 00:16:37;;;;;;;3.33;1.90;;;23.10;49.60;;;;;;5022299;28;20044;-71
2022/08/04 00:19:06;;;;;;;3.58;1.77;;;23.10;49.50;;;;;;5025548;28;20505;-72
2022/08/04 00:21:35;;;;;;;1.58;1.48;;;23.10;49.70;;;;;;5014672;28;20036;-71
2022/08/04 00:24:00;;;;;;;2.72;1.80;;;23.00;49.80;;;;;;5022333;28;20028;-72
2022/08/04 00:26:26;;;;;;;2.72;1.77;;;23.00;49.90;;;;;;5032688;28;20043;-71
2022/08/04 00:28:51;;;;;;;1.80;1.70;;;22.90;50.00;;;;;;5029798;28;20052;-70
2022/08/04 00:31:17;;;;;;;5.22;1.90;;;22.90;50.10;;;;;;5042160;28;20040;-71
2022/08/04 00:33:43;;;;;;;4.05;1.85;;;22.90;50.20;;;;;;5041544;28;20029;-71
2022/08/04 00:36:10;;;;;;;3.15;1.90;;;22.80;50.20;;;;;;5022795;28;20953;-70
2022/08/04 00:38:36;;;;;;;2.25;1.70;;;22.80;50.30;;;;;;5043235;28;20109;-70
2022/08/04 00:41:14;;;;;;;2.30;1.88;;;22.80;50.40;;;;;;5055287;28;20497;-70
2022/08/04 00:43:46;;;;;;;2.30;1.85;;;22.70;50.70;;;;;;5031909;28;20051;-71
2022/08/04 00:46:21;;;;;;;2.05;1.95;;;22.70;50.60;;;;;;5043414;28;20039;-71
2022/08/04 00:49:06;;;;;;;3.17;1.92;;;22.60;50.90;;;;;;5059010;28;20047;-71
2022/08/04 00:51:48;;;;;;;1.65;1.55;;;22.60;50.90;;;;;;5031072;28;20102;-71
2022/08/04 00:54:20;;;;;;;3.30;2.00;;;22.50;51.30;;;;;;5043095;28;20040;-71
2022/08/04 00:57:10;;;;;;;1.90;1.80;;;22.50;51.20;;;;;;5033195;28;20040;-70
2022/08/04 01:00:08;;;;;;;3.28;2.22;;;22.40;51.10;;;;;;5030114;28;20051;-71
2022/08/04 01:02:48;;;;;;;2.58;1.67;;;22.40;51.50;;;;;;5067155;28;20077;-72
2022/08/04 01:05:55;;;;;;;2.15;1.90;;;22.30;51.30;;;;;;5030505;28;20513;-71
2022/08/04 01:09:00;;;;;;;3.25;2.08;;;22.30;51.80;;;;;;5028222;28;20043;-71
2022/08/04 01:11:36;;;;;;;2.35;2.15;;;22.20;51.90;;;;;;5015844;28;20037;-71
2022/08/04 01:14:39;;;;;;;2.45;2.13;;;22.20;51.60;;;;;;5014054;28;20452;-70
2022/08/04 01:17:20;;;;;;;3.88;1.98;;;22.20;52.10;;;;;;5056965;28;20172;-71
2022/08/04 01:19:54;;;;;;;2.92;2.00;;;22.10;52.20;;;;;;5014817;28;20051;-71
2022/08/04 01:22:31;;;;;;;3.72;1.65;;;22.10;51.80;;;;;;5039230;28;20507;-71
2022/08/04 01:25:18;;;;;;;3.05;2.17;;;22.00;52.30;;;;;;5068402;28;20040;-70
2022/08/04 01:28:22;;;;;;;2.78;2.17;;;22.00;52.40;;;;;;5021856;28;20043;-70
2022/08/04 01:30:48;;;;;;;3.10;2.00;;;21.90;52.60;;;;;;5040454;28;20144;-71
2022/08/04 01:33:14;;;;;;;3.28;1.88;;;21.90;52.20;;;;;;5021739;28;20040;-71
2022/08/04 01:35:46;;;;;;;4.80;2.30;;;21.90;52.40;;;;;;5008514;28;20047;-72
2022/08/04 01:38:32;;;;;;;5.93;2.38;;;21.80;52.40;;;;;;5013385;28;20040;-72
2022/08/04 01:41:09;;;;;;;2.53;2.13;;;21.80;53.80;;;;;;5059910;28;20617;-71
2022/08/04 01:43:40;;;;;;;4.30;2.53;;;21.70;53.00;;;;;;5037567;28;20577;-71
2022/08/04 01:46:05;;;;;;;2.55;2.30;;;21.70;52.80;;;;;;5023920;28;20724;-71
2022/08/04 01:48:31;;;;;;;2.90;2.10;;;21.70;53.50;;;;;;5042002;28;20044;-72
2022/08/04 01:50:58;;;;;;;3.30;2.28;;;21.60;52.90;;;;;;5036962;28;20036;-71
2022/08/04 01:53:31;;;;;;;2.88;2.50;;;21.60;53.20;;;;;;5033829;28;20648;-71
2022/08/04 01:55:58;;;;;;;2.70;2.08;;;21.60;53.40;;;;;;5030222;28;20044;-71
2022/08/04 01:58:24;;;;;;;3.30;2.10;;;21.50;53.40;;;;;;5023822;28;20043;-72
2022/08/04 02:01:02;;;;;;;3.50;2.40;;;21.50;53.40;;;;;;5067988;28;20092;-71
2022/08/04 02:03:28;;;;;;;2.95;2.00;;;21.50;53.50;;;;;;5027528;28;20041;-72
2022/08/04 02:06:14;;;;;;;2.75;2.38;;;21.40;53.60;;;;;;5044246;28;20874;-71
2022/08/04 02:09:03;;;;;;;2.72;2.17;;;21.40;53.90;;;;;;5019575;28;20114;-73
2022/08/04 02:11:28;;;;;;;2.72;1.98;;;21.30;54.10;;;;;;5017163;28;20060;-72
2022/08/04 02:14:01;;;;;;;2.33;2.13;;;21.30;53.80;;;;;;5025379;28;20167;-73
2022/08/04 02:16:30;;;;;;;2.90;2.33;;;21.30;54.00;;;;;;5029927;28;20043;-73
2022/08/04 02:19:07;;;;;;;2.97;2.33;;;21.20;54.00;;;;;;5054875;28;20848;-72
2022/08/04 02:21:33;;;;;;;2.97;2.05;;;21.20;54.40;;;;;;5069678;28;20035;-72
2022/08/04 02:24:01;;;;;;;3.53;2.40;;;21.10;54.20;;;;;;5019531;28;20482;-73
2022/08/04 02:26:28;;;;;;;2.85;2.50;;;21.20;54.40;;;;;;5050722;28;20039;-73
2022/08/04 02:29:06;;;;;;;2.28;2.08;;;21.10;54.40;;;;;;5030989;28;20048;-72
2022/08/04 02:31:36;;;;;;;3.40;2.13;;;21.10;54.80;;;;;;4998344;28;20501;-73
2022/08/04 02:34:09;;;;;;;3.97;2.47;;;21.10;54.60;;;;;;5020386;28;20056;-72
2022/08/04 02:36:39;;;;;;;2.42;2.22;;;21.00;54.80;;;;;;5015456;28;20159;-72
2022/08/04 02:39:06;;;;;;;3.67;2.30;;;21.00;54.90;;;;;;5015834;28;20043;-71
2022/08/04 02:41:32;;;;;;;2.80;2.25;;;20.90;54.90;;;;;;5034322;28;20560;-71
2022/08/04 02:44:07;;;;;;;2.60;2.40;;;20.90;55.10;;;;;;5037606;28;20054;-72
2022/08/04 02:46:34;;;;;;;2.53;2.33;;;20.80;55.10;;;;;;5018795;28;20036;-72
2022/08/04 02:49:02;;;;;;;2.80;2.03;;;20.80;55.20;;;;;;5034769;28;20037;-72
2022/08/04 02:51:29;;;;;;;2.35;2.15;;;20.80;55.30;;;;;;5033657;28;20540;-72
2022/08/04 02:53:57;;;;;;;3.00;2.50;;;20.80;55.30;;;;;;5026869;28;20104;-71
2022/08/04 02:56:24;;;;;;;5.32;3.08;;;20.70;55.50;;;;;;5026410;28;21385;-71
2022/08/04 02:59:03;;;;;;;2.42;2.17;;;20.70;55.40;;;;;;5055759;28;20126;-73
2022/08/04 03:01:28;;;;;;;2.65;2.15;;;20.70;55.70;;;;;;5034573;28;20033;-72
2022/08/04 03:04:31;;;;;;;2.75;2.55;;;20.60;55.60;;;;;;5037738;28;20050;-72
2022/08/04 03:07:17;;;;;;;2.20;2.00;;;20.60;56.20;;;;;;5061454;28;20051;-71
2022/08/04 03:09:55;;;;;;;3.92;2.40;;;20.60;56.20;;;;;;5041828;28;20161;-72
2022/08/04 03:12:41;;;;;;;3.72;2.33;;;20.60;55.90;;;;;;5057480;28;20035;-71
2022/08/04 03:15:15;;;;;;;2.58;2.25;;;20.50;56.40;;;;;;5001641;28;20032;-72
2022/08/04 03:18:14;;;;;;;3.78;2.38;;;20.50;56.20;;;;;;5031697;28;20033;-71
2022/08/04 03:21:17;;;;;;;4.47;2.30;;;20.40;56.60;;;;;;5050691;28;20086;-71
2022/08/04 03:24:07;;;;;;;2.90;2.28;;;20.40;56.60;;;;;;5049624;28;20062;-73
2022/08/04 03:27:05;;;;;;;2.33;2.10;;;20.40;56.50;;;;;;5038594;28;20037;-71
2022/08/04 03:29:58;;;;;;;2.95;2.60;;;20.30;56.50;;;;;;5054817;28;20029;-73
2022/08/04 03:32:48;;;;;;;3.42;2.33;;;20.30;56.90;;;;;;5036491;28;20660;-72
2022/08/04 03:35:32;;;;;;;3.05;2.53;;;20.20;56.90;;;;;;5039013;28;20032;-72
2022/08/04 03:38:22;;;;;;;3.60;2.05;;;20.20;57.00;;;;;;5054206;28;20044;-73
2022/08/04 03:41:26;;;;;;;4.60;2.45;;;20.20;57.10;;;;;;5028075;28;20110;-72
2022/08/04 03:44:10;;;;;;;3.85;2.63;;;20.10;57.20;;;;;;5020664;28;20775;-71
2022/08/04 03:46:54;;;;;;;4.80;2.38;;;20.10;57.30;;;;;;5057913;28;20615;-71
2022/08/04 03:49:45;;;;;;;5.38;2.28;;;20.10;57.40;;;;;;5068978;28;20040;-73
2022/08/04 03:55:18;;;;;;;4.47;2.38;;;20.00;57.30;;;;;;5049193;28;20039;-72
2022/08/04 03:57:53;;;;;;;4.22;2.28;;;20.00;57.20;;;;;;5049798;28;20036;-71
2022/08/04 04:00:20;;;;;;;2.67;2.47;;;19.90;57.40;;;;;;5065297;28;20102;-72
2022/08/04 04:03:00;;;;;;;3.63;2.33;;;19.90;57.40;;;;;;5019100;28;20043;-71
2022/08/04 04:05:34;;;;;;;2.58;2.38;;;19.90;57.80;;;;;;5057927;28;20044;-72
2022/08/04 04:08:24;;;;;;;4.20;2.47;;;19.80;57.60;;;;;;5054328;28;20048;-71
2022/08/04 04:11:05;;;;;;;4.80;2.45;;;19.80;58.10;;;;;;5040337;28;20063;-71
2022/08/04 04:13:33;;;;;;;3.33;2.70;;;19.80;58.00;;;;;;5022845;28;20528;-71
2022/08/04 04:16:22;;;;;;;3.08;2.75;;;19.80;57.80;;;;;;5035074;28;20040;-72
2022/08/04 04:19:20;;;;;;;2.60;2.35;;;19.80;58.10;;;;;;5015760;28;20051;-71
2022/08/04 04:21:48;;;;;;;5.18;2.58;;;19.70;58.30;;;;;;5036137;28;20302;-71
2022/08/04 04:24:45;;;;;;;2.63;2.42;;;19.70;57.90;;;;;;5044764;28;20045;-71
2022/08/04 04:27:48;;;;;;;4.63;2.10;;;19.70;58.50;;;;;;5017882;28;20059;-71
2022/08/04 04:30:22;;;;;;;6.80;3.25;;;19.70;58.60;;;;;;5054073;28;20032;-71
2022/08/04 04:33:00;;;;;;;2.85;2.30;;;19.70;58.20;;;;;;5025469;28;20041;-71
2022/08/04 04:35:36;;;;;;;3.13;2.38;;;19.60;58.40;;;;;;5027049;28;20059;-72
2022/08/04 04:38:23;;;;;;;3.17;2.50;;;19.60;58.40;;;;;;5016575;28;20029;-72
2022/08/04 04:41:16;;;;;;;4.00;2.80;;;19.60;58.50;;;;;;5066621;28;20025;-71
2022/08/04 04:43:45;;;;;;;6.30;2.30;;;19.60;58.80;;;;;;5049180;28;20028;-71
2022/08/04 04:46:29;;;;;;;6.22;2.42;;;19.60;58.60;;;;;;5016114;28;20044;-71
2022/08/04 04:49:10;;;;;;;3.88;2.70;;;19.60;59.10;;;;;;5018298;28;20692;-72
2022/08/04 04:52:01;;;;;;;2.72;2.47;;;19.50;59.00;;;;;;5000318;28;20043;-71
2022/08/04 04:54:34;;;;;;;2.63;2.38;;;19.60;59.20;;;;;;5042441;28;20731;-72
2022/08/04 04:57:18;;;;;;;5.97;2.90;;;19.50;58.90;;;;;;5043448;28;20044;-72
2022/08/04 04:59:57;;;;;;;4.65;2.50;;;19.50;59.10;;;;;;5020166;28;20039;-71
2022/08/04 05:02:28;;;;;;;2.70;2.50;;;19.50;59.10;;;;;;5028221;28;20136;-71
2022/08/04 05:05:02;;;;;;;2.35;2.15;;;19.50;59.30;;;;;;5019557;28;20068;-72
2022/08/04 05:08:10;;;;;;;3.72;2.65;;;19.50;59.50;;;;;;5043371;28;20032;-73
2022/08/04 05:11:12;;;;;;;3.58;2.60;;;19.50;60.00;;;;;;4999194;28;20045;-72
2022/08/04 05:13:41;;;;;;;2.85;2.65;;;19.50;60.00;;;;;;5045237;28;20044;-73
2022/08/04 05:16:34;;;;;;;7.57;2.97;;;19.60;59.70;;;;;;5040968;28;20041;-71
2022/08/04 05:19:12;;;;;;;2.88;2.67;;;19.50;60.00;;;;;;4998559;28;20033;-71
2022/08/04 05:21:48;;;;;;;4.82;3.10;;;19.60;60.20;;;;;;5025532;28;20081;-73
2022/08/04 05:24:16;;;;;;;8.70;2.90;;;19.60;60.50;;;;;;5026198;28;20142;-71
2022/08/04 05:26:53;;;;;;;4.25;3.30;;;19.60;60.20;;;;;;5009638;28;20044;-73
2022/08/04 05:29:28;;;;;;;3.40;2.70;;;19.60;60.60;;;;;;5033931;28;20161;-71
2022/08/04 05:31:54;;;;;;;5.07;3.20;;;19.70;61.00;;;;;;5030723;28;20044;-72
2022/08/04 05:34:22;;;;;;;5.93;2.97;;;19.70;60.90;;;;;;5036612;28;20485;-72
2022/08/04 05:36:52;;;;;;;4.93;3.22;;;19.70;61.30;;;;;;5037320;28;20523;-72
2022/08/04 05:39:23;;;;;;;3.15;2.95;;;19.80;61.60;;;;;;5025998;28;20063;-72
2022/08/04 05:41:49;;;;;;;3.28;2.78;;;19.80;61.60;;;;;;5029425;28;20815;-72
2022/08/04 05:44:18;;;;;;;3.70;3.05;;;19.80;61.40;;;;;;5027833;28;20465;-72
2022/08/04 05:46:46;;;;;;;4.40;3.28;;;19.90;61.60;;;;;;5044744;28;20066;-73
2022/08/04 05:49:11;;;;;;;4.85;3.38;;;19.90;61.70;;;;;;5017896;28;20747;-73
2022/08/04 05:51:37;;;;;;;5.32;3.08;;;20.00;61.60;;;;;;5037372;28;20036;-72
2022/08/04 05:54:02;;;;;;;6.38;3.05;;;20.00;61.70;;;;;;4994300;28;20761;-72
2022/08/04 05:56:28;;;;;;;6.80;2.97;;;20.10;61.80;;;;;;5042989;28;20592;-73
2022/08/04 05:58:53;;;;;;;5.20;3.53;;;20.10;61.80;;;;;;5050634;28;20048;-73
2022/08/04 06:01:19;;;;;;;12.30;3.95;;;20.20;61.90;;;;;;5047525;28;20516;-72
2022/08/04 06:03:45;;;;;;;6.00;3.85;;;20.20;61.90;;;;;;5040753;28;20032;-72
2022/08/04 06:06:10;;;;;;;7.15;3.00;;;20.30;62.00;;;;;;5019263;28;20421;-72
2022/08/04 06:08:36;;;;;;;3.70;3.13;;;20.40;61.90;;;;;;5036443;28;20066;-72
2022/08/04 06:11:04;;;;;;;6.10;3.03;;;20.50;62.00;;;;;;5045520;28;20107;-73
2022/08/04 06:13:32;;;;;;;3.50;2.67;;;20.50;61.70;;;;;;5032821;28;20093;-73
2022/08/04 06:15:57;;;;;;;7.28;2.85;;;20.60;61.60;;;;;;5047133;28;20071;-74
2022/08/04 06:18:23;;;;;;;8.27;2.90;;;20.70;61.50;;;;;;5056669;28;20122;-73
2022/08/04 06:20:50;;;;;;;7.63;2.85;;;20.80;61.20;;;;;;5039154;28;20479;-71
2022/08/04 06:23:16;;;;;;;5.10;3.33;;;20.90;61.00;;;;;;5028842;28;20443;-72
2022/08/04 06:25:52;;;;;;;5.55;2.80;;;21.00;60.80;;;;;;5036654;28;20550;-72
2022/08/04 06:28:17;;;;;;;8.02;3.10;;;21.20;60.60;;;;;;5042648;28;20409;-70
2022/08/04 06:30:46;;;;;;;5.82;2.67;;;21.30;60.20;;;;;;5028076;28;20535;-71
2022/08/04 06:33:23;;;;;;;4.85;2.50;;;21.40;59.80;;;;;;5042351;28;20041;-71
2022/08/04 06:35:49;;;;;;;5.03;2.70;;;21.50;60.20;;;;;;5021541;28;20396;-71
2022/08/04 06:38:15;;;;;;;4.25;2.67;;;21.70;59.20;;;;;;5032989;28;20065;-71
2022/08/04 06:40:40;;;;;;;7.00;2.63;;;21.80;59.00;;;;;;5050684;28;20107;-74
2022/08/04 06:43:06;;;;;;;5.65;2.63;;;21.90;58.80;;;;;;5035225;28;20060;-74
2022/08/04 06:45:33;;;;;;;5.78;2.78;;;22.00;58.60;;;;;;5009893;28;20116;-73
2022/08/04 06:47:58;;;;;;;2.80;2.55;;;22.20;58.30;;;;;;5037895;28;20558;-75
2022/08/04 06:50:24;;;;;;;7.30;2.70;;;22.30;58.10;;;;;;5043288;28;20051;-71
2022/08/04 06:52:50;;;;;;;5.43;2.72;;;22.50;57.90;;;;;;5041748;28;20123;-74
2022/08/04 06:55:15;;;;;;;4.93;2.88;;;22.60;57.60;;;;;;5046082;28;20428;-73
2022/08/04 06:57:41;;;;;;;7.80;2.60;;;22.70;57.30;;;;;;5013698;28;20398;-73
2022/08/04 07:00:10;;;;;;;3.95;2.60;;;22.90;57.10;;;;;;5029382;28;20642;-73
2022/08/04 07:02:43;;;;;;;10.57;2.88;;;23.10;56.80;;;;;;5036289;28;20028;-74
2022/08/04 07:05:09;;;;;;;6.38;2.80;;;23.30;56.50;;;;;;5033167;28;20044;-71
2022/08/04 07:07:35;;;;;;;3.58;2.50;;;23.40;56.30;;;;;;5024578;28;20056;-71
2022/08/04 07:10:01;;;;;;;4.22;2.42;;;23.60;56.00;;;;;;5013578;28;20052;-71
2022/08/04 07:12:26;;;;;;;7.22;2.90;;;23.70;55.80;;;;;;5031276;28;20031;-74
2022/08/04 07:14:52;;;;;;;8.82;2.78;;;23.90;55.60;;;;;;5051316;28;20046;-71
2022/08/04 07:17:18;;;;;;;4.50;2.67;;;24.00;55.30;;;;;;5037268;28;20028;-71
2022/08/04 07:19:43;;;;;;;6.60;3.17;;;24.20;55.70;;;;;;5025326;28;20158;-71
2022/08/04 07:22:09;;;;;;;11.20;2.63;;;24.40;54.70;;;;;;5059540;28;20032;-71
2022/08/04 07:24:35;;;;;;;11.38;2.63;;;24.50;54.40;;;;;;5065186;28;20028;-72
2022/08/04 07:27:01;;;;;;;5.70;2.45;;;24.70;54.00;;;;;;5030024;28;20042;-71
2022/08/04 07:29:27;;;;;;;5.85;2.58;;;24.80;53.60;;;;;;5002322;28;20037;-72
2022/08/04 07:31:56;;;;;;;5.40;2.70;;;25.00;53.40;;;;;;4999919;28;20028;-71
2022/08/04 07:34:22;;;;;;;7.57;2.78;;;25.20;53.10;;;;;;5018193;28;20040;-72
2022/08/04 07:36:52;;;;;;;7.32;2.60;;;25.40;52.90;;;;;;4999607;28;20056;-71
2022/08/04 07:39:18;;;;;;;7.28;2.58;;;25.60;52.60;;;;;;5028931;28;20527;-74
2022/08/04 07:41:43;;;;;;;5.20;2.70;;;25.80;52.30;;;;;;5033154;28;20036;-71
2022/08/04 07:44:09;;;;;;;8.40;2.47;;;26.00;51.90;;;;;;5000567;28;20021;-71
2022/08/04 07:46:35;;;;;;;8.80;3.20;;;26.20;51.60;;;;;;5000439;28;20044;-71
2022/08/04 07:49:01;;;;;;;5.50;2.45;;;26.40;51.30;;;;;;5020317;28;20048;-72
2022/08/04 07:51:27;;;;;;;4.63;2.50;;;26.60;51.00;;;;;;5009868;28;20029;-71
2022/08/04 07:53:53;;;;;;;9.50;2.63;;;26.80;50.60;;;;;;5017857;28;20052;-71
2022/08/04 07:56:18;;;;;;;6.13;2.17;;;26.90;50.30;;;;;;5022732;28;20033;-71
2022/08/04 07:58:44;;;;;;;3.33;2.42;;;27.10;50.00;;;;;;4996643;28;20075;-72
2022/08/04 08:01:09;;;;;;;4.10;2.25;;;27.40;49.70;;;;;;5018146;28;20063;-71
2022/08/04 08:03:35;;;;;;;6.30;2.15;;;27.50;49.20;;;;;;5023064;28;20116;-71
2022/08/04 08:06:02;;;;;;;7.82;2.08;;;27.70;48.90;;;;;;5023879;28;20144;-72
2022/08/04 08:08:28;;;;;;;4.28;1.95;;;27.90;48.50;;;;;;5040234;28;20033;-74
2022/08/04 08:10:53;;;;;;;5.90;1.80;;;28.10;48.20;;;;;;5027970;28;20068;-71
2022/08/04 08:13:19;;;;;;;7.05;2.25;;;28.30;47.80;;;;;;5015512;28;20033;-71
2022/08/04 08:15:45;;;;;;;5.13;2.10;;;28.50;47.40;;;;;;4983188;28;20064;-72
2022/08/04 08:18:11;;;;;;;4.35;2.00;;;28.70;47.00;;;;;;4997906;28;20032;-71
2022/08/04 08:20:36;;;;;;;4.60;2.30;;;28.90;46.70;;;;;;5004939;28;20036;-71
2022/08/04 08:23:02;;;;;;;9.85;2.25;;;29.10;46.40;;;;;;5006837;28;20421;-72
2022/08/04 08:25:32;;;;;;;3.35;1.70;;;29.30;46.00;;;;;;5044438;28;20510;-72
2022/08/04 08:27:57;;;;;;;4.68;1.60;;;29.60;45.80;;;;;;5036638;28;20052;-72
2022/08/04 08:30:24;;;;;;;2.00;1.75;;;29.80;45.50;;;;;;5039391;28;20089;-72
2022/08/04 08:32:49;;;;;;;4.68;1.80;;;30.00;45.10;;;;;;5031407;28;20036;-72
2022/08/04 08:35:15;;;;;;;7.45;1.80;;;30.20;44.60;;;;;;5034514;28;20109;-73
2022/08/04 08:37:45;;;;;;;5.25;1.88;;;30.40;44.20;;;;;;5046541;28;20431;-72
2022/08/04 08:40:20;;;;;;;4.17;1.27;;;30.60;43.90;;;;;;5005715;28;20536;-71
2022/08/04 08:43:07;;;;;;;6.72;2.40;;;30.80;43.30;;;;;;5047334;28;20035;-72
2022/08/04 08:45:43;;;;;;;3.40;1.50;;;31.00;42.30;;;;;;5058814;28;20036;-71
2022/08/04 08:48:28;;;;;;;5.03;1.40;;;31.20;42.10;;;;;;5033442;28;20040;-71
2022/08/04 08:50:53;;;;;;;4.25;1.38;;;31.50;41.60;;;;;;5070049;28;20036;-72
2022/08/04 08:53:45;;;;;;;1.35;1.20;;;31.70;41.80;;;;;;5030588;28;20092;-72
2022/08/04 08:56:12;;;;;;;1.98;1.27;;;31.90;40.60;;;;;;5032597;28;20113;-71
2022/08/04 08:58:42;;;;;;;1.20;1.10;;;32.10;40.80;;;;;;5025679;28;20032;-73
2022/08/04 09:01:45;;;;;;;1.95;1.02;;;32.20;40.20;;;;;;5037400;28;20045;-72
2022/08/04 09:04:31;;;;;;;3.75;1.50;;;32.50;39.60;;;;;;5045625;28;20072;-72
2022/08/04 09:07:31;;;;;;;3.13;1.50;;;32.70;39.60;;;;;;5066585;28;20064;-72
2022/08/04 09:10:42;;;;;;;1.90;1.40;;;32.90;39.10;;;;;;5032499;28;20036;-72
2022/08/04 09:13:20;;;;;;;2.05;1.35;;;33.10;38.90;;;;;;4940866;28;20062;-72
2022/08/04 09:15:58;;;;;;;5.28;1.42;;;33.40;38.70;;;;;;4957111;28;20046;-74
2022/08/04 09:18:33;;;;;;;3.95;1.30;;;33.60;38.60;;;;;;4964580;28;20912;-73
2022/08/04 09:21:03;;;;;;;3.53;1.65;;;33.70;38.00;;;;;;4964581;28;20050;-72
2022/08/04 09:23:34;;;;;;;2.85;1.10;;;34.00;38.00;;;;;;4955412;28;20968;-72
2022/08/04 09:26:37;;;;;;;6.45;1.60;;;34.10;37.50;;;;;;4965756;28;20034;-73
2022/08/04 09:29:38;;;;;;;1.80;1.20;;;34.30;36.80;;;;;;4938943;28;20165;-72
2022/08/04 09:32:33;;;;;;;2.10;1.33;;;34.50;36.40;;;;;;4966009;28;20062;-73
2022/08/04 09:35:14;;;;;;;3.03;1.25;;;34.80;36.00;;;;;;4942817;28;20786;-72
2022/08/04 09:37:39;;;;;;;3.78;1.30;;;35.00;36.10;;;;;;4948528;28;20031;-72
2022/08/04 09:40:16;;;;;;;2.55;1.17;;;35.20;35.90;;;;;;4956202;28;20045;-74
2022/08/04 09:43:01;;;;;;;3.47;1.27;;;35.30;35.60;;;;;;4959453;28;20088;-72
2022/08/04 09:45:32;;;;;;;3.90;1.20;;;35.50;35.20;;;;;;4965750;28;20034;-73
2022/08/04 09:48:04;;;;;;;1.08;1.00;;;35.60;34.90;;;;;;4998869;28;20119;-72
2022/08/04 09:50:34;;;;;;;2.13;0.80;;;35.80;34.70;;;;;;5021631;28;20061;-73
2022/08/04 09:53:20;;;;;;;3.05;1.08;;;36.00;34.60;;;;;;5027697;28;20040;-72
2022/08/04 09:55:46;;;;;;;2.67;1.15;;;36.20;33.90;;;;;;5020193;28;20093;-73
2022/08/04 09:58:15;;;;;;;1.38;1.23;;;36.40;33.70;;;;;;5022342;28;20072;-73
2022/08/04 10:00:44;;;;;;;2.25;1.10;;;36.60;33.30;;;;;;5038600;28;20056;-73
2022/08/04 10:03:12;;;;;;;3.88;1.00;;;36.80;33.00;;;;;;5026343;28;20048;-72
2022/08/04 10:06:15;;;;;;;1.98;1.17;;;37.10;32.70;;;;;;5026234;28;20628;-72
2022/08/04 10:09:19;;;;;;;2.45;1.20;;;37.20;31.30;;;;;;5032763;28;20537;-72
2022/08/04 10:11:53;;;;;;;3.20;1.00;;;37.30;31.20;;;;;;5036657;28;20115;-72
2022/08/04 10:14:51;;;;;;;1.65;1.20;;;37.50;31.70;;;;;;5050658;28;20566;-73
2022/08/04 10:17:25;;;;;;;3.10;1.00;;;37.70;30.70;;;;;;4986311;28;20131;-72
2022/08/04 10:20:02;;;;;;;1.50;0.90;;;37.80;30.80;;;;;;5011693;28;20088;-72
2022/08/04 10:22:36;;;;;;;4.00;1.10;;;38.00;30.50;;;;;;5017629;28;20071;-72
2022/08/04 10:25:35;;;;;;;2.22;1.00;;;38.20;30.30;;;;;;5029904;28;20036;-74
2022/08/04 10:28:04;;;;;;;1.67;1.05;;;38.40;29.70;;;;;;5024211;28;20107;-72
2022/08/04 10:30:32;;;;;;;5.82;1.15;;;38.60;30.00;;;;;;5012952;28;20037;-73
2022/08/04 10:33:10;;;;;;;5.00;1.10;;;38.70;29.90;;;;;;5010994;28;20059;-72
2022/08/04 10:35:53;;;;;;;1.33;0.80;;;38.90;29.30;;;;;;5000445;28;20041;-72
2022/08/04 10:38:31;;;;;;;2.45;1.25;;;39.10;29.10;;;;;;5056637;28;20170;-72
2022/08/04 10:41:05;;;;;;;2.72;1.20;;;39.30;28.90;;;;;;5015475;28;20565;-72
2022/08/04 10:44:23;;;;;;;1.40;0.95;;;39.50;29.20;;;;;;5004445;28;20044;-72
2022/08/04 10:47:00;;;;;;;5.18;1.30;;;39.60;28.70;;;;;;5027517;28;20082;-72
2022/08/04 10:49:37;;;;;;;1.67;1.00;;;39.80;28.60;;;;;;5021384;28;20048;-72
2022/08/04 10:52:09;;;;;;;2.15;1.00;;;39.90;28.50;;;;;;5018283;28;20032;-74
2022/08/04 10:54:42;;;;;;;2.58;1.27;;;40.00;28.70;;;;;;5039332;28;20074;-75
2022/08/04 10:57:12;;;;;;;2.70;1.08;;;40.10;28.50;;;;;;5053223;28;20037;-75
2022/08/04 10:59:55;;;;;;;1.50;0.90;;;40.20;28.20;;;;;;5018488;28;20033;-72
2022/08/04 11:02:29;;;;;;;1.38;1.10;;;40.40;27.90;;;;;;5034563;28;20123;-72
2022/08/04 11:05:17;;;;;;;3.60;0.90;;;40.50;28.00;;;;;;5013223;28;20032;-72
2022/08/04 11:07:44;;;;;;;1.17;0.90;;;40.60;27.20;;;;;;5036325;28;20033;-72
2022/08/04 11:10:09;;;;;;;2.10;0.90;;;40.70;27.50;;;;;;4991089;28;20032;-72
2022/08/04 11:12:35;;;;;;;1.25;1.10;;;40.80;27.30;;;;;;5040705;28;20037;-72
2022/08/04 11:15:06;;;;;;;1.77;0.80;;;40.80;27.30;;;;;;5023309;28;20025;-73
2022/08/04 11:17:35;;;;;;;3.22;0.88;;;41.00;27.10;;;;;;5007975;28;20025;-73
2022/08/04 11:20:14;;;;;;;1.80;1.00;;;41.00;26.90;;;;;;5008846;28;20048;-72
2022/08/04 11:23:09;;;;;;;0.70;0.70;;;41.10;26.70;;;;;;4993606;28;20379;-72
2022/08/04 11:25:54;;;;;;;1.02;0.70;;;41.40;26.50;;;;;;5007136;28;20029;-72
2022/08/04 11:28:36;;;;;;;2.25;1.20;;;41.40;26.60;;;;;;5036089;28;20090;-72
2022/08/04 11:31:28;;;;;;;1.15;0.50;;;41.50;26.10;;;;;;5053750;28;20063;-73
2022/08/04 11:33:54;;;;;;;1.75;0.90;;;41.70;26.30;;;;;;5047389;28;20044;-72
2022/08/04 11:36:29;;;;;;;2.00;0.85;;;41.70;26.20;;;;;;5043990;28;20050;-73
2022/08/04 11:39:03;;;;;;;1.05;0.95;;;41.80;25.70;;;;;;5062863;28;20455;-73
2022/08/04 11:41:50;;;;;;;2.20;0.73;;;41.80;25.80;;;;;;5060864;28;20039;-75
2022/08/04 11:44:35;;;;;;;2.50;1.00;;;42.00;25.40;;;;;;5050869;28;20068;-75
2022/08/04 11:47:08;;;;;;;2.55;0.80;;;42.00;25.70;;;;;;5055472;28;20077;-75
2022/08/04 11:49:40;;;;;;;1.00;0.73;;;42.10;25.50;;;;;;5035142;28;20052;-73
2022/08/04 11:52:05;;;;;;;1.63;0.80;;;42.20;25.30;;;;;;5027120;28;20238;-73
2022/08/04 11:54:32;;;;;;;2.45;1.00;;;42.30;25.70;;;;;;5021489;28;20131;-74
2022/08/04 11:56:57;;;;;;;1.27;0.70;;;42.40;24.90;;;;;;5007654;28;20577;-73
2022/08/04 11:59:23;;;;;;;1.45;0.90;;;42.50;24.80;;;;;;5044914;28;20048;-72
2022/08/04 12:02:21;;;;;;;1.55;0.88;;;42.50;24.60;;;;;;5039327;28;20110;-72
2022/08/04 12:04:56;;;;;;;0.85;0.80;;;42.50;24.60;;;;;;5022961;28;20065;-72
2022/08/04 12:07:39;;;;;;;4.90;0.80;;;42.50;24.50;;;;;;5042270;28;20075;-73
2022/08/04 12:10:23;;;;;;;0.63;0.63;;;42.50;24.10;;;;;;5049555;28;20058;-73
2022/08/04 12:13:13;;;;;;;2.28;0.80;;;42.40;24.20;;;;;;5028957;28;20055;-73
2022/08/04 12:15:48;;;;;;;1.30;0.93;;;42.30;24.20;;;;;;5044485;28;20528;-72
2022/08/04 12:18:33;;;;;;;2.17;0.80;;;42.20;24.60;;;;;;5068640;28;20088;-72
2022/08/04 12:21:09;;;;;;;0.82;0.80;;;42.20;24.30;;;;;;5060879;28;20568;-73
2022/08/04 12:23:38;;;;;;;1.40;0.90;;;42.30;24.40;;;;;;5024298;28;20044;-73
2022/08/04 12:26:14;;;;;;;1.42;0.75;;;42.40;24.40;;;;;;5048939;28;20033;-72
2022/08/04 12:28:40;;;;;;;0.70;0.60;;;42.50;24.50;;;;;;5038839;28;20036;-73
2022/08/04 12:31:16;;;;;;;3.22;0.98;;;42.50;24.40;;;;;;5056694;28;20028;-72
2022/08/04 12:33:46;;;;;;;2.70;0.70;;;42.60;24.20;;;;;;5027360;28;20051;-74
2022/08/04 12:36:19;;;;;;;1.08;0.80;;;42.60;24.20;;;;;;5042501;28;20052;-72
2022/08/04 12:38:53;;;;;;;1.30;0.60;;;42.60;24.20;;;;;;5068174;28;20603;-73
2022/08/04 12:41:24;;;;;;;0.63;0.60;;;42.60;24.00;;;;;;5042718;28;20056;-72
2022/08/04 12:43:49;;;;;;;1.73;0.90;;;42.70;24.10;;;;;;5023100;28;20027;-73
2022/08/04 12:46:22;;;;;;;2.83;0.77;;;42.70;24.00;;;;;;5061051;28;20114;-74
2022/08/04 12:48:47;;;;;;;1.05;0.85;;;42.80;23.50;;;;;;5037146;28;20114;-74
2022/08/04 12:51:13;;;;;;;0.95;0.70;;;42.80;23.60;;;;;;5038879;28;20162;-74
2022/08/04 12:53:40;;;;;;;1.15;0.73;;;42.90;23.70;;;;;;5036884;28;20069;-72
2022/08/04 12:56:06;;;;;;;0.80;0.70;;;43.00;23.70;;;;;;5053531;28;20047;-72
2022/08/04 12:58:35;;;;;;;1.60;0.90;;;43.00;23.50;;;;;;5031201;28;20064;-73
2022/08/04 13:01:02;;;;;;;1.20;0.70;;;43.10;23.30;;;;;;5038950;28;20044;-75
2022/08/04 13:03:39;;;;;;;0.70;0.70;;;43.20;23.20;;;;;;5036600;28;20039;-75
2022/08/04 13:06:05;;;;;;;0.80;0.80;;;43.30;23.10;;;;;;5015573;28;20040;-76
2022/08/04 13:08:30;;;;;;;0.77;0.75;;;43.30;22.80;;;;;;5033502;28;20052;-75
2022/08/04 13:10:56;;;;;;;0.98;0.70;;;43.40;22.80;;;;;;5039998;28;20083;-74
2022/08/04 13:13:24;;;;;;;2.05;0.80;;;43.50;22.80;;;;;;5043220;28;20032;-75
2022/08/04 13:15:57;;;;;;;1.00;0.70;;;43.50;22.80;;;;;;5015766;28;20405;-76
2022/08/04 13:18:24;;;;;;;1.13;0.90;;;43.50;22.70;;;;;;5046395;28;20100;-75
2022/08/04 13:20:50;;;;;;;2.63;0.90;;;43.50;22.80;;;;;;5061903;28;20051;-75
2022/08/04 13:23:16;;;;;;;4.25;0.77;;;43.60;22.90;;;;;;5079796;28;20044;-76
2022/08/04 13:25:43;;;;;;;0.80;0.80;;;43.60;22.80;;;;;;5031595;28;20040;-73
2022/08/04 13:28:15;;;;;;;4.13;0.82;;;43.70;22.70;;;;;;5023860;28;20035;-73